Veteran, WY

2:37 PM MDT on August 29, 2015 (GMT -0600)
Cherry Creek | | Change Station
CLOSE
Current Station
Personal Weather Station
Location: Veteran, WY
Elevation: 4249 ft
Nearby Weather Stations

Elev 4249 ft 41.99 °N, 104.40 °W | Updated 7 minutes ago

Clear
Clear
92.5 °F
Feels Like 88 °F
N
1.0
Wind Variable Wind from NE
Gusts 1.0 mph

Today
High -- | Low -- °F
--% Chance of Precip.
Yesterday
High -- | Low -- °F
Precip. -- in
6:19 AM 7:36 PM
Full, 100% visible
Pressure 29.92 in
Visibility 10.0 miles
Clouds Clear
Heat Index 88 °F
Dew Point 40 °F
Humidity 16%
Rainfall 0.00 in
Snow Depth Not available.
UV 9 out of 12
Pollen 10.30 out of 12
Air Quality Not available.
Flu Activity Not available.
METAR KTOR 291953Z AUTO 13008KT 10SM CLR 33/06 A3007 RMK AO2 SLP130 T03330061
Pressure 29.92 in
Visibility 10.0 miles
Clouds Clear
Heat Index 88 °F
Dew Point 40 °F
Humidity 16%
Rainfall 0.00 in
Snow Depth Not available.
UV 9 out of 12
Pollen 10.30 out of 12
Air Quality Not available.
Flu Activity Not available.
METAR KTOR 291953Z AUTO 13008KT 10SM CLR 33/06 A3007 RMK AO2 SLP130 T03330061

10-Day Weather Forecast

×

Almanac

Astronomy

Aug. 29, 2015 Rise Set
Actual Time
Civil Twilight
Nautical Twilight
Astronomical Twilight
Moon
Length of Visible Light
Length of Day
Tomorrow will be .
, % of the Moon is Illuminated

Today's Extremes

State Highs State Lows

Community

WunderPhotos

Upload Photos

1,850,793 photos uploaded!

WunderBlogs® & News

Nearby

Air Quality

  Air Quality AQ Index Pollutant
Not available.

Snow Depth

Station Depth Elevation

Earthquake Activity

City Distance Mag. Time & Date
Minimum magnitude displayed is 2.5.

Coastal Water Temperatures

Place Temperature

Stations

Nearby Weather Stations

Station Location Temp. Windchill Dew Point Humidity Wind Precip. Elev Updated Type